Terminal Aerodrome Forecast
Issued by NWS

Home | Current Version | Previous Version | Text Only | Print | Product List | Glossary On
Versions: 1 2 3 4 5 6 7 8 9 10 11 12 13 14 15 16 17
000
FTUS46 KPDT 280103 AAA
TAFBDN
TAF AMD
KBDN 280103Z 2801/2824 28011KT P6SM VCSH SCT015 BKN035
      TEMPO 2801/2804 3SM -SHSN BR OVC025
     FM280500 24010KT P6SM VCSH BKN050=

USA.gov is the U.S. government's official web portal to all federal, state and local government web resources and services.